EFHA

Halli Airport

Halli / Kuorevesi, Finland
METAR EFHA 241320Z AUTO 29012KT CAVOK 10/00 Q1003
Observed Flight Rules
Sep-24 @ 13:20 UTC (17 minutes ago) Visual Flight Rules
Wind Visibility Clouds
290° at 12 knots 10,000+ meters
  • Clear skies
Temperatures Readings
Current 10°C / 50°F
Dewpoint 0°C / 32°F
Humidity 50%
Altimeter 29.62" Hg
Pressure 1003 hPa
Elevation 145
METAR EFHA 241320Z AUTO 29012KT CAVOK 10/00 Q1003
Observed Flight Rules
Sep-24 @ 13:20 UTC
(17 minutes ago)
VFR
Wind Visibility
290° at 12 knots 10,000+ meters
Clouds
  • Clear skies
Temperature Dewpoint
10°C / 50°F 0°C / 32°F
Humidity Altimeter Pressure
50% 29.62" Hg 1003 hPa